2TX7 weather

Jw Airport
Justin, Texas, United States

Public forecast

Using degrees Fahrenheit for public forecast. Weather courtesy of forecast.io.

Closest aviation weather report (METAR) to Jw Airport

Closest report is Fort Worth Alliance Airport, 7.5 nm (13.9 km) SSE. Retrieved 2019/12/16 04:25 UTC (11 minutes ago):

KAFW 160425Z 36014KT 10SM OVC010 06/02 A2989 RMK AO2 T00560022

Closest aviation forecast (TAF) to Jw Airport

Closest forecast is Fort Worth Alliance Airport, 7.5 nm (13.9 km) SSE. Retrieved 2019-12-16 00:33 UTC (4 hours ago):

TAF KAFW 160030Z 1600/1624 34012KT P6SM SCT250 FM160200 35013KT 6SM BR OVC015 FM161600 33014G24KT P6SM OVC020 FM162000 33019G29KT P6SM SCT050